createdAt,value
2018-05-25T00:00:59.232Z,18.02
2018-05-25T00:03:27.587Z,17.91
2018-05-25T00:05:56.818Z,17.91
2018-05-25T00:08:25.209Z,17.80
2018-05-25T00:10:54.037Z,17.77
2018-05-25T00:13:24.111Z,17.72
2018-05-25T00:15:52.426Z,17.66
2018-05-25T00:18:20.804Z,17.74
2018-05-25T00:20:49.151Z,17.77
2018-05-25T00:23:17.506Z,17.82
2018-05-25T00:25:46.785Z,17.85
2018-05-25T00:28:15.103Z,17.83
2018-05-25T00:30:43.436Z,17.78
2018-05-25T00:33:11.764Z,17.75
2018-05-25T00:35:40.204Z,17.75
2018-05-25T00:38:08.554Z,17.78
2018-05-25T00:40:36.877Z,17.82
2018-05-25T00:43:05.272Z,17.85
2018-05-25T00:45:33.600Z,17.82
2018-05-25T00:48:02.048Z,17.77
2018-05-25T00:50:30.445Z,17.68
2018-05-25T00:52:58.814Z,17.65
2018-05-25T00:55:41.541Z,17.60
2018-05-25T00:58:09.977Z,17.63
2018-05-25T01:00:38.436Z,17.59
2018-05-25T01:03:06.838Z,17.64
2018-05-25T01:05:35.183Z,17.65
2018-05-25T01:08:03.611Z,17.68
2018-05-25T01:10:33.309Z,17.75
2018-05-25T01:13:01.622Z,17.67
2018-05-25T01:15:30.017Z,17.62
2018-05-25T01:17:58.377Z,17.66
2018-05-25T01:20:26.697Z,17.70
2018-05-25T01:22:55.996Z,17.67
2018-05-25T01:25:24.315Z,17.68
2018-05-25T01:27:52.648Z,17.75
2018-05-25T01:30:20.983Z,17.72
2018-05-25T01:32:49.316Z,17.70
2018-05-25T01:35:17.668Z,17.74
2018-05-25T01:37:46.013Z,17.69
2018-05-25T01:40:14.347Z,17.65
2018-05-25T01:42:42.708Z,17.66
2018-05-25T01:45:11.014Z,17.70
2018-05-25T01:47:39.423Z,17.68
2018-05-25T01:50:08.966Z,17.62
2018-05-25T01:52:38.190Z,17.64
2018-05-25T01:55:06.547Z,17.66
2018-05-25T01:57:34.863Z,17.70
2018-05-25T02:00:03.216Z,17.73
2018-05-25T02:02:32.476Z,17.75
2018-05-25T02:05:01.037Z,17.74
2018-05-25T02:07:29.381Z,17.79
2018-05-25T02:09:57.715Z,17.74
2018-05-25T02:12:26.118Z,17.73
2018-05-25T02:14:54.996Z,17.74
2018-05-25T02:17:23.632Z,17.73
2018-05-25T02:19:51.981Z,17.74
2018-05-25T02:22:20.447Z,17.69
2018-05-25T02:24:48.896Z,17.67
2018-05-25T02:27:17.214Z,17.65
2018-05-25T02:29:45.628Z,17.60
2018-05-25T02:32:13.941Z,17.61
2018-05-25T02:34:42.312Z,17.59
2018-05-25T02:37:10.633Z,17.55
2018-05-25T02:39:39.044Z,17.55
2018-05-25T02:42:07.314Z,17.54
2018-05-25T02:44:35.635Z,17.55
2018-05-25T02:47:03.989Z,17.52
2018-05-25T02:49:32.328Z,17.53
2018-05-25T02:52:00.660Z,17.47
2018-05-25T02:54:28.983Z,17.48
2018-05-25T02:56:57.388Z,17.50
2018-05-25T02:59:25.721Z,17.46
2018-05-25T03:01:54.060Z,17.47
2018-05-25T03:04:22.397Z,17.45
2018-05-25T03:06:50.711Z,17.46
2018-05-25T03:09:19.030Z,17.41
2018-05-25T03:11:47.369Z,17.38
2018-05-25T03:14:16.479Z,17.40
2018-05-25T03:16:44.866Z,17.38
2018-05-25T03:19:13.235Z,17.37
2018-05-25T03:21:41.625Z,17.40
2018-05-25T03:24:10.012Z,17.37
2018-05-25T03:26:38.406Z,17.34
2018-05-25T03:29:06.800Z,17.41
2018-05-25T03:31:35.157Z,17.41
2018-05-25T03:34:03.500Z,17.42
2018-05-25T03:36:31.819Z,17.39
2018-05-25T03:39:03.342Z,17.40
2018-05-25T03:41:31.687Z,17.44
2018-05-25T03:44:00.036Z,17.46
2018-05-25T03:46:28.345Z,17.49
2018-05-25T03:48:56.771Z,17.54
2018-05-25T03:51:25.136Z,17.56
2018-05-25T03:53:53.660Z,17.55
2018-05-25T03:56:21.963Z,17.65
2018-05-25T03:59:03.011Z,17.68
2018-05-25T04:01:43.941Z,17.66
2018-05-25T04:04:12.267Z,17.74
2018-05-25T04:06:40.648Z,17.80
2018-05-25T04:09:09.779Z,17.81
2018-05-25T04:11:38.178Z,17.86
2018-05-25T04:14:06.537Z,17.81
2018-05-25T04:16:34.889Z,18.01
2018-05-25T04:19:04.309Z,18.06
2018-05-25T04:21:32.642Z,18.10
2018-05-25T04:24:00.963Z,18.17
2018-05-25T04:26:29.278Z,18.13
2018-05-25T04:28:57.707Z,18.22
2018-05-25T04:31:26.035Z,18.06
2018-05-25T04:33:54.434Z,18.01
2018-05-25T04:36:22.748Z,17.93
2018-05-25T04:38:51.078Z,17.92
2018-05-25T04:41:19.415Z,18.01
2018-05-25T04:43:47.752Z,18.01
2018-05-25T04:46:16.150Z,18.19
2018-05-25T04:48:44.483Z,18.23
2018-05-25T04:51:12.808Z,18.41
2018-05-25T04:53:41.163Z,18.55
2018-05-25T04:56:09.500Z,18.59
2018-05-25T04:58:37.914Z,18.76
2018-05-25T05:01:06.281Z,18.86
2018-05-25T05:03:34.587Z,19.04
2018-05-25T05:06:02.938Z,19.10
2018-05-25T05:08:31.268Z,19.28
2018-05-25T05:10:59.669Z,19.28
2018-05-25T05:13:28.011Z,19.48
2018-05-25T05:15:56.363Z,19.60
2018-05-25T05:18:24.745Z,19.78
2018-05-25T05:20:53.090Z,19.74
2018-05-25T05:23:21.523Z,19.56
2018-05-25T05:25:49.850Z,19.50
2018-05-25T05:28:18.182Z,19.45
2018-05-25T05:30:46.591Z,19.32
2018-05-25T05:33:14.920Z,19.02
2018-05-25T05:35:43.279Z,19.18
2018-05-25T05:38:11.622Z,19.27
2018-05-25T05:40:39.971Z,18.93
2018-05-25T05:43:08.711Z,18.88
2018-05-25T05:45:37.100Z,19.05
2018-05-25T05:48:05.467Z,19.16
2018-05-25T05:50:33.890Z,19.08
2018-05-25T05:53:02.254Z,19.02
2018-05-25T05:55:30.647Z,19.39
2018-05-25T05:57:59.021Z,19.79
2018-05-25T06:00:27.409Z,21.05
2018-05-25T06:02:58.567Z,22.51
2018-05-25T06:05:26.961Z,23.82
2018-05-25T06:07:55.364Z,24.50
2018-05-25T06:10:23.703Z,24.69
2018-05-25T06:12:52.148Z,24.62
2018-05-25T06:15:20.489Z,25.24
2018-05-25T06:17:48.833Z,26.22
2018-05-25T06:20:17.266Z,27.14
2018-05-25T06:22:45.568Z,26.69
2018-05-25T06:25:13.910Z,26.81
2018-05-25T06:27:42.256Z,26.85
2018-05-25T06:30:10.681Z,28.21
2018-05-25T06:32:39.021Z,28.63
2018-05-25T06:35:07.364Z,29.21
2018-05-25T06:37:35.708Z,29.21
2018-05-25T06:40:04.057Z,29.64
2018-05-25T06:42:32.414Z,30.54
2018-05-25T06:45:00.740Z,30.77
2018-05-25T06:47:29.132Z,31.27
2018-05-25T06:49:57.460Z,31.29
2018-05-25T06:52:26.410Z,31.31
2018-05-25T06:54:54.788Z,31.07
2018-05-25T06:57:23.200Z,30.31
2018-05-25T07:00:09.485Z,30.53
2018-05-25T07:05:29.305Z,31.08
2018-05-25T07:07:57.623Z,30.35
2018-05-25T07:10:26.027Z,31.74
2018-05-25T07:12:54.369Z,30.94
2018-05-25T07:15:22.811Z,31.46
2018-05-25T07:17:51.201Z,30.80
2018-05-25T07:20:19.524Z,29.73
2018-05-25T07:22:47.849Z,30.03
2018-05-25T07:25:16.163Z,29.32
2018-05-25T07:27:44.577Z,29.16
2018-05-25T07:30:12.976Z,28.73
2018-05-25T07:32:41.301Z,26.94
2018-05-25T07:35:09.643Z,25.56
2018-05-25T07:37:37.969Z,25.26
2018-05-25T07:40:06.610Z,25.60
2018-05-25T07:42:34.936Z,25.39
2018-05-25T07:45:03.364Z,24.46
2018-05-25T07:47:31.692Z,24.24
2018-05-25T07:50:00.144Z,24.73
2018-05-25T07:52:28.475Z,25.50
2018-05-25T07:54:56.793Z,26.51
2018-05-25T07:57:25.135Z,26.74
2018-05-25T07:59:53.452Z,26.80
2018-05-25T08:02:21.804Z,27.53
2018-05-25T08:04:50.121Z,27.48
2018-05-25T08:07:18.464Z,26.76
2018-05-25T08:09:46.790Z,26.65
2018-05-25T08:12:15.107Z,26.00
2018-05-25T08:14:44.297Z,25.84
2018-05-25T08:17:12.635Z,26.18
2018-05-25T08:19:41.040Z,26.72
2018-05-25T08:22:09.448Z,26.57
2018-05-25T08:24:37.786Z,26.41
2018-05-25T08:27:06.099Z,26.21
2018-05-25T08:29:34.419Z,26.22
2018-05-25T08:32:02.781Z,26.61
2018-05-25T08:34:46.756Z,28.27
2018-05-25T08:37:15.133Z,30.76
2018-05-25T08:39:43.535Z,30.64
2018-05-25T08:42:11.924Z,30.13
2018-05-25T08:44:40.288Z,30.72
2018-05-25T08:47:08.706Z,30.27
2018-05-25T08:49:37.052Z,30.02
2018-05-25T08:52:05.394Z,30.94
2018-05-25T08:54:33.740Z,31.57
2018-05-25T08:57:02.067Z,32.27
2018-05-25T08:59:30.420Z,30.48
2018-05-25T09:01:58.858Z,30.37
2018-05-25T09:04:27.188Z,30.16
2018-05-25T09:06:55.511Z,30.82
2018-05-25T09:09:23.846Z,30.98
2018-05-25T09:11:52.175Z,31.17
2018-05-25T09:14:20.491Z,31.45
2018-05-25T09:16:49.162Z,31.24
2018-05-25T09:19:17.507Z,31.67
2018-05-25T09:21:45.862Z,32.40
2018-05-25T09:24:14.174Z,33.01
2018-05-25T09:26:42.574Z,31.78
2018-05-25T09:29:10.901Z,29.91
2018-05-25T09:31:39.255Z,30.02
2018-05-25T09:34:07.568Z,30.76
2018-05-25T09:36:35.906Z,32.24
2018-05-25T09:39:04.220Z,31.62
2018-05-25T09:41:32.547Z,30.42
2018-05-25T09:44:00.958Z,29.79
2018-05-25T09:46:29.312Z,30.07
2018-05-25T09:48:57.703Z,30.57
2018-05-25T09:51:25.972Z,30.34
2018-05-25T09:53:54.322Z,29.95
2018-05-25T09:56:22.653Z,29.56
2018-05-25T09:58:51.021Z,30.11
2018-05-25T10:01:19.457Z,31.20
2018-05-25T10:03:47.849Z,30.31
2018-05-25T10:06:16.180Z,30.17
2018-05-25T10:08:44.504Z,29.94
2018-05-25T10:11:12.952Z,30.74
2018-05-25T10:13:41.319Z,31.69
2018-05-25T10:16:09.700Z,31.19
2018-05-25T10:18:38.043Z,31.28
2018-05-25T10:21:06.378Z,32.07
2018-05-25T10:23:34.710Z,32.20
2018-05-25T10:26:03.033Z,32.04
2018-05-25T10:28:31.373Z,31.68
2018-05-25T10:31:00.032Z,31.91
2018-05-25T10:33:28.376Z,31.80
2018-05-25T10:35:56.751Z,30.47
2018-05-25T10:38:25.100Z,30.60
2018-05-25T10:40:56.643Z,30.59
2018-05-25T10:43:24.972Z,30.13
2018-05-25T10:45:53.307Z,29.80
2018-05-25T10:48:21.635Z,30.56
2018-05-25T10:50:49.968Z,30.28
2018-05-25T10:53:18.357Z,29.80
2018-05-25T10:55:46.675Z,30.20
2018-05-25T10:58:15.022Z,30.48
2018-05-25T11:00:43.492Z,30.39
2018-05-25T11:03:12.830Z,31.27
2018-05-25T11:05:43.998Z,32.77
2018-05-25T11:08:12.312Z,33.92
2018-05-25T11:10:40.644Z,32.38
2018-05-25T11:13:08.959Z,32.01
2018-05-25T11:15:37.365Z,32.34
2018-05-25T11:18:05.727Z,31.32
2018-05-25T11:20:34.099Z,30.70
2018-05-25T11:23:02.405Z,30.52
2018-05-25T11:25:30.798Z,31.23
2018-05-25T11:27:59.113Z,31.93
2018-05-25T11:30:27.529Z,31.43
2018-05-25T11:32:55.942Z,31.15
2018-05-25T11:35:24.291Z,31.63
2018-05-25T11:37:52.688Z,31.77
2018-05-25T11:40:21.115Z,32.00
2018-05-25T11:42:49.435Z,31.55
2018-05-25T11:45:17.757Z,32.16
2018-05-25T11:47:46.082Z,30.81
2018-05-25T11:50:14.435Z,30.22
2018-05-25T11:52:42.855Z,30.61
2018-05-25T11:55:11.264Z,31.52
2018-05-25T11:57:39.596Z,31.85
2018-05-25T12:00:08.021Z,31.16
2018-05-25T12:02:36.367Z,31.00
2018-05-25T12:05:04.737Z,32.18
2018-05-25T12:07:33.108Z,32.90
2018-05-25T12:10:01.436Z,32.48
2018-05-25T12:12:29.787Z,32.19
2018-05-25T12:14:59.152Z,32.23
2018-05-25T12:17:27.593Z,31.21
2018-05-25T12:19:55.938Z,31.68
2018-05-25T12:22:24.323Z,32.21
2018-05-25T12:24:52.646Z,33.10
2018-05-25T12:27:21.296Z,31.79
2018-05-25T12:29:50.300Z,31.95
2018-05-25T12:32:18.645Z,31.09
2018-05-25T12:34:47.055Z,30.18
2018-05-25T12:37:15.372Z,30.92
2018-05-25T12:39:43.710Z,30.58
2018-05-25T12:42:12.038Z,31.21
2018-05-25T12:44:52.109Z,32.30
2018-05-25T12:47:20.442Z,32.95
2018-05-25T12:49:48.891Z,33.52
2018-05-25T12:52:17.202Z,33.74
2018-05-25T12:54:45.541Z,34.32
2018-05-25T12:57:13.941Z,34.24
2018-05-25T12:59:42.361Z,34.44
2018-05-25T13:02:10.682Z,35.54
2018-05-25T13:04:39.036Z,35.83
2018-05-25T13:07:07.380Z,36.03
2018-05-25T13:09:35.733Z,36.02
2018-05-25T13:12:04.077Z,35.23
2018-05-25T13:14:32.422Z,34.89
2018-05-25T13:17:00.745Z,35.94
2018-05-25T13:19:29.083Z,35.54
2018-05-25T13:21:57.408Z,35.65
2018-05-25T13:24:25.768Z,33.99
2018-05-25T13:26:54.104Z,33.87
2018-05-25T13:29:22.478Z,33.17
2018-05-25T13:31:50.846Z,33.39
2018-05-25T13:34:19.228Z,33.73
2018-05-25T13:36:47.555Z,33.87
2018-05-25T13:39:15.891Z,34.70
2018-05-25T13:41:44.304Z,33.94
2018-05-25T13:44:12.636Z,34.31
2018-05-25T13:46:40.988Z,34.63
2018-05-25T13:49:09.378Z,34.45
2018-05-25T13:51:37.740Z,34.31
2018-05-25T13:54:06.170Z,34.75
2018-05-25T13:56:34.502Z,34.39
2018-05-25T13:59:02.863Z,33.92
2018-05-25T14:01:31.204Z,33.54
2018-05-25T14:03:59.538Z,34.19
2018-05-25T14:06:27.876Z,34.28
2018-05-25T14:08:56.206Z,34.75
2018-05-25T14:11:24.603Z,33.42
2018-05-25T14:13:52.979Z,32.79
2018-05-25T14:16:21.803Z,31.92
2018-05-25T14:18:50.226Z,30.90
2018-05-25T14:21:18.637Z,31.78
2018-05-25T14:23:46.995Z,32.49
2018-05-25T14:26:15.364Z,33.15
2018-05-25T14:28:43.697Z,32.63
2018-05-25T14:31:12.025Z,33.21
2018-05-25T14:33:40.359Z,33.52
2018-05-25T14:36:08.838Z,33.26
2018-05-25T14:38:37.255Z,34.03
2018-05-25T14:41:05.585Z,33.41
2018-05-25T14:43:34.016Z,33.62
2018-05-25T14:46:02.396Z,33.96
2018-05-25T14:48:30.766Z,33.59
2018-05-25T14:50:59.129Z,33.78
2018-05-25T14:53:27.460Z,33.25
2018-05-25T14:55:55.776Z,32.78
2018-05-25T14:58:24.156Z,32.56
2018-05-25T15:00:52.520Z,32.98
2018-05-25T15:03:20.949Z,32.88
2018-05-25T15:05:49.342Z,33.47
2018-05-25T15:08:17.668Z,33.07
2018-05-25T15:10:46.024Z,32.85
2018-05-25T15:13:14.350Z,33.09
2018-05-25T15:15:42.710Z,32.44
2018-05-25T15:18:11.033Z,32.20
2018-05-25T15:20:39.385Z,32.61
2018-05-25T15:23:07.712Z,32.51
2018-05-25T15:25:36.081Z,32.18
2018-05-25T15:28:04.415Z,31.79
2018-05-25T15:30:32.741Z,31.69
2018-05-25T15:33:01.072Z,31.73
2018-05-25T15:35:29.455Z,31.33
2018-05-25T15:37:57.832Z,31.30
2018-05-25T15:40:26.172Z,31.37
2018-05-25T15:42:54.491Z,31.06
2018-05-25T15:45:22.823Z,31.34
2018-05-25T15:47:51.153Z,30.99
2018-05-25T15:50:19.484Z,30.67
2018-05-25T15:52:47.815Z,30.84
2018-05-25T15:55:17.771Z,30.72
2018-05-25T15:57:46.115Z,30.80
2018-05-25T16:00:14.463Z,30.93
2018-05-25T16:02:42.779Z,30.64
2018-05-25T16:05:11.163Z,30.57
2018-05-25T16:07:39.487Z,30.44
2018-05-25T16:10:07.857Z,30.53
2018-05-25T16:12:36.239Z,29.92
2018-05-25T16:15:04.676Z,29.75
2018-05-25T16:17:33.055Z,29.37
2018-05-25T16:20:01.412Z,29.13
2018-05-25T16:22:29.736Z,28.91
2018-05-25T16:24:58.061Z,28.56
2018-05-25T16:27:26.503Z,28.48
2018-05-25T16:29:54.819Z,28.29
2018-05-25T16:32:23.295Z,28.21
2018-05-25T16:34:51.621Z,28.32
2018-05-25T16:37:19.983Z,28.19
2018-05-25T16:39:48.339Z,28.07
2018-05-25T16:42:16.669Z,28.14
2018-05-25T16:44:44.985Z,27.94
2018-05-25T16:47:13.419Z,27.73
2018-05-25T16:49:41.769Z,27.46
2018-05-25T16:52:10.123Z,27.28
2018-05-25T16:54:38.449Z,27.12
2018-05-25T16:57:06.875Z,27.11
2018-05-25T16:59:35.307Z,26.92
2018-05-25T17:02:03.660Z,26.85
2018-05-25T17:04:31.980Z,26.83
2018-05-25T17:07:00.334Z,26.62
2018-05-25T17:09:28.757Z,26.45
2018-05-25T17:11:57.076Z,26.30
2018-05-25T17:14:25.448Z,26.17
2018-05-25T17:16:53.950Z,26.22
2018-05-25T17:19:22.285Z,26.26
2018-05-25T17:21:50.716Z,26.17
2018-05-25T17:24:19.148Z,26.18
2018-05-25T17:26:47.502Z,26.10
2018-05-25T17:29:15.887Z,26.22
2018-05-25T17:31:44.280Z,26.09
2018-05-25T17:34:12.687Z,25.89
2018-05-25T17:36:41.125Z,25.80
2018-05-25T17:39:09.464Z,25.74
2018-05-25T17:41:37.856Z,25.65
2018-05-25T17:44:06.248Z,25.45
2018-05-25T17:46:34.639Z,25.44
2018-05-25T17:49:03.028Z,25.47
2018-05-25T17:51:31.349Z,25.33
2018-05-25T17:53:59.707Z,25.24
2018-05-25T17:56:30.717Z,25.19
2018-05-25T17:58:59.808Z,25.17
2018-05-25T18:01:28.180Z,25.09
2018-05-25T18:03:56.555Z,24.97
2018-05-25T18:06:24.879Z,24.95
2018-05-25T18:08:53.251Z,24.79
2018-05-25T18:11:21.627Z,24.72
2018-05-25T18:13:49.986Z,24.68
2018-05-25T18:16:18.374Z,24.58
2018-05-25T18:18:46.715Z,24.38
2018-05-25T18:21:15.056Z,24.28
2018-05-25T18:23:43.400Z,24.19
2018-05-25T18:26:11.894Z,24.13
2018-05-25T18:28:40.218Z,24.05
2018-05-25T18:31:09.449Z,23.88
2018-05-25T18:33:41.653Z,23.79
2018-05-25T18:36:10.071Z,23.72
2018-05-25T18:38:38.472Z,23.60
2018-05-25T18:41:06.831Z,23.45
2018-05-25T18:43:35.177Z,23.36
2018-05-25T18:46:03.531Z,23.26
2018-05-25T18:48:31.849Z,23.19
2018-05-25T18:51:00.175Z,23.05
2018-05-25T18:53:28.499Z,22.98
2018-05-25T18:55:56.827Z,22.91
2018-05-25T18:58:25.150Z,22.79
2018-05-25T19:00:53.523Z,22.66
2018-05-25T19:03:21.847Z,22.59
2018-05-25T19:05:50.162Z,22.45
2018-05-25T19:08:18.491Z,22.41
2018-05-25T19:10:46.819Z,22.28
2018-05-25T19:13:15.150Z,22.24
2018-05-25T19:15:43.549Z,22.21
2018-05-25T19:18:11.919Z,22.06
2018-05-25T19:20:40.407Z,22.00
2018-05-25T19:23:09.060Z,21.91
2018-05-25T19:25:37.412Z,21.94
2018-05-25T19:28:05.797Z,21.86
2018-05-25T19:30:34.158Z,21.76
2018-05-25T19:33:02.495Z,21.68
2018-05-25T19:35:30.882Z,21.59
2018-05-25T19:37:59.235Z,21.38
2018-05-25T19:40:27.622Z,21.27
2018-05-25T19:42:56.304Z,21.11
2018-05-25T19:45:24.701Z,20.96
2018-05-25T19:47:53.015Z,20.83
2018-05-25T19:50:21.354Z,20.71
2018-05-25T19:52:49.715Z,20.56
2018-05-25T19:55:18.120Z,20.46
2018-05-25T19:57:46.457Z,20.43
2018-05-25T20:00:14.924Z,20.35
2018-05-25T20:02:43.287Z,20.27
2018-05-25T20:05:11.742Z,20.23
2018-05-25T20:07:40.091Z,20.27
2018-05-25T20:10:08.435Z,20.29
2018-05-25T20:12:36.778Z,20.26
2018-05-25T20:15:05.120Z,20.23
2018-05-25T20:17:34.089Z,20.21
2018-05-25T20:20:02.450Z,20.21
2018-05-25T20:22:30.962Z,20.27
2018-05-25T20:24:59.371Z,20.25
2018-05-25T20:27:28.504Z,20.28
2018-05-25T20:29:57.770Z,20.36
2018-05-25T20:32:27.143Z,20.38
2018-05-25T20:34:55.512Z,20.39
2018-05-25T20:37:23.968Z,20.37
2018-05-25T20:39:52.352Z,20.38
2018-05-25T20:42:20.703Z,20.38
2018-05-25T20:44:49.076Z,20.28
2018-05-25T20:47:17.442Z,20.25
2018-05-25T20:49:45.841Z,20.16
2018-05-25T20:52:14.211Z,20.16
2018-05-25T20:54:42.809Z,20.16
2018-05-25T20:57:11.222Z,20.11
2018-05-25T20:59:39.590Z,20.14
2018-05-25T21:02:07.935Z,20.16
2018-05-25T21:04:36.273Z,20.18
2018-05-25T21:07:04.910Z,20.28
2018-05-25T21:09:33.915Z,20.31
2018-05-25T21:12:02.348Z,20.32
2018-05-25T21:14:30.684Z,20.36
2018-05-25T21:16:59.048Z,20.33
2018-05-25T21:19:27.383Z,20.33
2018-05-25T21:21:56.115Z,20.28
2018-05-25T21:24:24.460Z,20.10
2018-05-25T21:26:52.831Z,19.98
2018-05-25T21:29:21.235Z,19.90
2018-05-25T21:31:49.640Z,19.83
2018-05-25T21:34:17.992Z,19.73
2018-05-25T21:36:46.482Z,19.65
2018-05-25T21:39:14.882Z,19.57
2018-05-25T21:41:43.220Z,19.51
2018-05-25T21:44:11.592Z,19.41
2018-05-25T21:46:39.975Z,19.32
2018-05-25T21:49:08.308Z,19.21
2018-05-25T21:51:36.688Z,19.18
2018-05-25T21:54:05.046Z,19.13
2018-05-25T21:56:33.842Z,19.06
2018-05-25T21:59:02.221Z,18.98
2018-05-25T22:01:31.404Z,18.89
2018-05-25T22:03:59.747Z,18.83
2018-05-25T22:06:28.165Z,18.79
2018-05-25T22:08:56.544Z,18.78
2018-05-25T22:11:24.913Z,18.72
2018-05-25T22:13:53.322Z,18.62
2018-05-25T22:16:21.677Z,18.52
2018-05-25T22:18:50.026Z,18.43
2018-05-25T22:21:18.404Z,18.32
2018-05-25T22:23:46.751Z,18.28
2018-05-25T22:26:15.091Z,18.19
2018-05-25T22:28:44.232Z,18.11
2018-05-25T22:31:12.573Z,18.07
2018-05-25T22:33:40.885Z,17.99
2018-05-25T22:36:09.231Z,17.97
2018-05-25T22:38:37.560Z,17.93
2018-05-25T22:41:05.939Z,17.92
2018-05-25T22:43:46.323Z,17.88
2018-05-25T22:46:26.697Z,17.83
2018-05-25T22:49:07.067Z,17.75
2018-05-25T22:51:47.036Z,17.65
2018-05-25T22:54:27.594Z,17.59
2018-05-25T22:56:55.951Z,17.57
2018-05-25T22:59:24.321Z,17.43
2018-05-25T23:01:52.662Z,17.39
2018-05-25T23:04:21.103Z,17.38
2018-05-25T23:06:49.631Z,17.33
2018-05-25T23:09:18.012Z,17.25
2018-05-25T23:11:46.357Z,17.22
2018-05-25T23:14:14.746Z,17.13
2018-05-25T23:16:43.155Z,17.16
2018-05-25T23:19:11.543Z,17.13
2018-05-25T23:21:39.887Z,17.19
2018-05-25T23:24:08.210Z,17.19
2018-05-25T23:26:36.628Z,17.21
2018-05-25T23:29:05.015Z,17.19
2018-05-25T23:31:33.412Z,17.20
2018-05-25T23:34:01.865Z,17.20
2018-05-25T23:36:30.190Z,17.09
2018-05-25T23:38:59.388Z,17.10
2018-05-25T23:41:28.583Z,17.03
2018-05-25T23:43:56.976Z,17.01
2018-05-25T23:46:25.291Z,16.93
2018-05-25T23:48:53.624Z,16.89
2018-05-25T23:51:21.959Z,16.86
2018-05-25T23:53:50.298Z,16.79
2018-05-25T23:56:18.657Z,16.71
2018-05-25T23:58:47.041Z,16.63
